createdAt,value
2023-05-08T00:01:58.220Z,99134.64
2023-05-08T00:04:01.079Z,99132.46
2023-05-08T00:06:05.717Z,99136.23
2023-05-08T00:08:08.725Z,99137.00
2023-05-08T00:10:14.387Z,99140.75
2023-05-08T00:12:18.332Z,99138.22
2023-05-08T00:14:21.943Z,99141.17
2023-05-08T00:16:25.809Z,99141.13
2023-05-08T00:18:29.574Z,99144.60
2023-05-08T00:20:35.183Z,99145.11
2023-05-08T00:22:41.783Z,99143.87
2023-05-08T00:24:45.183Z,99144.08
2023-05-08T00:26:47.954Z,99141.73
2023-05-08T00:28:50.727Z,99144.61
2023-05-08T00:30:54.028Z,99147.10
2023-05-08T00:32:56.875Z,99146.18
2023-05-08T00:34:59.577Z,99145.36
2023-05-08T00:37:03.772Z,99146.69
2023-05-08T00:39:06.838Z,99148.64
2023-05-08T00:41:10.239Z,99148.06
2023-05-08T00:43:13.223Z,99150.77
2023-05-08T00:45:15.992Z,99146.85
2023-05-08T00:47:21.752Z,99151.19
2023-05-08T00:49:26.125Z,99152.19
2023-05-08T00:51:32.439Z,99154.83
2023-05-08T00:53:39.351Z,99156.36
2023-05-08T00:55:42.288Z,99156.46
2023-05-08T00:57:47.820Z,99161.16
2023-05-08T00:59:55.751Z,99157.80
2023-05-08T01:01:58.840Z,99162.41
2023-05-08T01:04:13.054Z,99162.84
2023-05-08T01:06:15.864Z,99156.88
2023-05-08T01:08:19.425Z,99161.69
2023-05-08T01:10:32.972Z,99163.15
2023-05-08T01:13:04.898Z,99166.11
2023-05-08T01:15:17.678Z,99171.71
2023-05-08T01:17:33.127Z,99171.63
2023-05-08T01:20:08.608Z,99177.08
2023-05-08T01:22:51.788Z,99175.25
2023-05-08T01:25:42.359Z,99179.23
2023-05-08T01:28:10.429Z,99178.27
2023-05-08T01:32:22.443Z,99180.66
2023-05-08T01:34:32.449Z,99181.31
2023-05-08T01:37:08.883Z,99182.58
2023-05-08T01:39:22.718Z,99183.91
2023-05-08T01:41:47.852Z,99185.89
2023-05-08T01:44:12.333Z,99184.66
2023-05-08T01:46:20.887Z,99186.88
2023-05-08T01:48:44.482Z,99190.70
2023-05-08T01:50:52.711Z,99189.54
2023-05-08T01:53:03.688Z,99191.11
2023-05-08T01:55:11.565Z,99192.45
2023-05-08T01:57:15.611Z,99193.28
2023-05-08T01:59:23.462Z,99197.13
2023-05-08T02:01:29.528Z,99197.05
2023-05-08T02:03:35.181Z,99200.16
2023-05-08T02:05:39.496Z,99196.04
2023-05-08T02:08:00.591Z,99196.69
2023-05-08T02:10:23.463Z,99196.20
2023-05-08T02:12:29.899Z,99194.88
2023-05-08T02:14:34.099Z,99198.12
2023-05-08T02:16:37.899Z,99197.52
2023-05-08T02:18:53.855Z,99195.71
2023-05-08T02:21:01.817Z,99194.84
2023-05-08T02:23:06.139Z,99194.09
2023-05-08T02:25:15.345Z,99195.56
2023-05-08T02:27:18.826Z,99195.68
2023-05-08T02:29:26.171Z,99197.89
2023-05-08T02:31:30.018Z,99195.90
2023-05-08T02:33:34.215Z,99199.71
2023-05-08T02:35:39.132Z,99200.00
2023-05-08T02:37:48.209Z,99203.65
2023-05-08T02:39:55.985Z,99202.67
2023-05-08T02:41:59.729Z,99200.70
2023-05-08T02:44:02.809Z,99201.35
2023-05-08T02:46:28.899Z,99201.06
2023-05-08T02:48:38.053Z,99196.34
2023-05-08T02:50:56.482Z,99193.20
2023-05-08T02:53:06.554Z,99193.25
2023-05-08T02:55:19.921Z,99188.86
2023-05-08T02:57:48.764Z,99189.66
2023-05-08T03:00:04.555Z,99189.10
2023-05-08T03:02:22.238Z,99189.93
2023-05-08T03:04:36.588Z,99191.21
2023-05-08T03:06:44.328Z,99188.11
2023-05-08T03:08:50.615Z,99191.10
2023-05-08T03:10:58.124Z,99185.53
2023-05-08T03:13:05.133Z,99185.73
2023-05-08T03:15:37.712Z,99185.38
2023-05-08T03:17:44.922Z,99189.69
2023-05-08T03:19:52.495Z,99187.88
2023-05-08T03:21:59.042Z,99191.77
2023-05-08T03:24:04.518Z,99190.57
2023-05-08T03:26:10.421Z,99194.57
2023-05-08T03:28:13.398Z,99191.84
2023-05-08T03:30:16.681Z,99195.92
2023-05-08T03:32:24.531Z,99195.84
2023-05-08T03:34:30.101Z,99197.74
2023-05-08T03:36:33.272Z,99194.17
2023-05-08T03:38:44.088Z,99193.04
2023-05-08T03:40:47.949Z,99193.64
2023-05-08T03:42:52.561Z,99195.52
2023-05-08T03:44:55.337Z,99194.63
2023-05-08T03:46:59.720Z,99193.56
2023-05-08T03:49:04.781Z,99200.12
2023-05-08T03:51:08.410Z,99199.70
2023-05-08T03:53:14.504Z,99202.38
2023-05-08T03:55:17.841Z,99202.84
2023-05-08T03:57:21.951Z,99202.80
2023-05-08T03:59:38.791Z,99205.34
2023-05-08T04:02:15.069Z,99209.31
2023-05-08T04:04:24.392Z,99210.63
2023-05-08T04:07:06.362Z,99209.63
2023-05-08T04:09:31.500Z,99210.20
2023-05-08T04:12:16.592Z,99211.70
2023-05-08T04:14:24.869Z,99212.65
2023-05-08T04:16:29.761Z,99210.92
2023-05-08T04:18:38.959Z,99208.48
2023-05-08T04:20:46.339Z,99217.36
2023-05-08T04:22:52.618Z,99213.36
2023-05-08T04:24:59.442Z,99216.42
2023-05-08T04:27:03.328Z,99220.25
2023-05-08T04:29:07.690Z,99222.73
2023-05-08T04:31:11.770Z,99222.63
2023-05-08T04:33:16.607Z,99223.91
2023-05-08T04:35:19.879Z,99225.95
2023-05-08T04:37:28.424Z,99229.00
2023-05-08T04:39:34.068Z,99235.37
2023-05-08T04:41:37.080Z,99237.73
2023-05-08T04:43:40.258Z,99240.73
2023-05-08T04:45:48.375Z,99240.95
2023-05-08T04:47:51.660Z,99243.06
2023-05-08T04:49:56.553Z,99244.48
2023-05-08T04:52:01.061Z,99244.85
2023-05-08T04:54:03.830Z,99248.98
2023-05-08T04:56:06.806Z,99252.09
2023-05-08T04:58:11.426Z,99252.64
2023-05-08T05:00:15.247Z,99252.15
2023-05-08T05:02:19.454Z,99252.67
2023-05-08T05:04:24.421Z,99249.75
2023-05-08T05:06:27.603Z,99251.85
2023-05-08T05:08:30.741Z,99255.77
2023-05-08T05:10:33.781Z,99257.17
2023-05-08T05:12:38.891Z,99255.70
2023-05-08T05:14:42.398Z,99254.81
2023-05-08T05:16:45.202Z,99258.89
2023-05-08T05:18:47.816Z,99259.42
2023-05-08T05:20:50.373Z,99259.41
2023-05-08T05:22:53.560Z,99257.44
2023-05-08T05:24:58.032Z,99259.63
2023-05-08T05:27:01.263Z,99259.09
2023-05-08T05:29:04.482Z,99260.92
2023-05-08T05:31:07.763Z,99252.98
2023-05-08T05:33:10.354Z,99257.77
2023-05-08T05:35:13.516Z,99260.20
2023-05-08T05:37:17.787Z,99261.70
2023-05-08T05:39:20.617Z,99265.48
2023-05-08T05:41:24.430Z,99264.51
2023-05-08T05:43:27.108Z,99260.75
2023-05-08T05:45:33.317Z,99265.84
2023-05-08T05:47:36.951Z,99264.27
2023-05-08T05:49:43.007Z,99266.69
2023-05-08T05:51:46.551Z,99264.73
2023-05-08T05:53:51.199Z,99267.17
2023-05-08T05:55:54.854Z,99268.45
2023-05-08T05:57:57.800Z,99267.66
2023-05-08T06:00:00.930Z,99272.64
2023-05-08T06:02:04.884Z,99271.73
2023-05-08T06:04:07.756Z,99272.14
2023-05-08T06:06:12.494Z,99271.52
2023-05-08T06:08:17.398Z,99272.58
2023-05-08T06:10:20.435Z,99266.58
2023-05-08T06:12:23.670Z,99276.10
2023-05-08T06:14:26.761Z,99272.48
2023-05-08T06:16:30.674Z,99274.25
2023-05-08T06:18:33.934Z,99275.25
2023-05-08T06:20:38.901Z,99271.63
2023-05-08T06:22:42.046Z,99270.63
2023-05-08T06:24:45.558Z,99270.47
2023-05-08T06:26:48.050Z,99269.67
2023-05-08T06:28:50.864Z,99272.66
2023-05-08T06:30:54.628Z,99274.77
2023-05-08T06:32:57.512Z,99275.66
2023-05-08T06:35:00.588Z,99275.63
2023-05-08T06:37:03.155Z,99276.79
2023-05-08T06:39:06.939Z,99275.66
2023-05-08T06:41:10.001Z,99276.35
2023-05-08T06:43:14.201Z,99276.25
2023-05-08T06:45:16.844Z,99273.87
2023-05-08T06:47:20.845Z,99276.52
2023-05-08T06:49:24.824Z,99276.59
2023-05-08T06:51:27.296Z,99275.62
2023-05-08T06:53:30.279Z,99271.66
2023-05-08T06:55:33.420Z,99271.91
2023-05-08T06:57:36.276Z,99272.43
2023-05-08T06:59:38.972Z,99273.17
2023-05-08T07:01:41.784Z,99273.02
2023-05-08T07:03:46.328Z,99272.59
2023-05-08T07:05:49.253Z,99268.38
2023-05-08T07:07:54.133Z,99269.24
2023-05-08T07:09:56.709Z,99268.88
2023-05-08T07:11:59.312Z,99270.01
2023-05-08T07:14:02.007Z,99270.99
2023-05-08T07:16:14.833Z,99272.85
2023-05-08T07:18:17.454Z,99275.19
2023-05-08T07:20:21.860Z,99272.58
2023-05-08T07:22:24.638Z,99272.89
2023-05-08T07:24:29.001Z,99274.09
2023-05-08T07:26:31.911Z,99275.10
2023-05-08T07:28:34.971Z,99273.24
2023-05-08T07:30:37.815Z,99278.68
2023-05-08T07:32:41.478Z,99275.87
2023-05-08T07:34:44.610Z,99276.02
2023-05-08T07:36:47.708Z,99277.13
2023-05-08T07:38:50.942Z,99276.69
2023-05-08T07:40:57.114Z,99275.73
2023-05-08T07:42:59.989Z,99278.54
2023-05-08T07:45:04.224Z,99276.41
2023-05-08T07:47:07.100Z,99279.92
2023-05-08T07:49:10.135Z,99275.98
2023-05-08T07:51:15.074Z,99272.95
2023-05-08T07:53:18.168Z,99278.77
2023-05-08T07:55:21.805Z,99276.48
2023-05-08T07:57:24.881Z,99275.38
2023-05-08T07:59:27.462Z,99275.34
2023-05-08T08:01:30.381Z,99274.33
2023-05-08T08:03:33.861Z,99272.61
2023-05-08T08:05:36.727Z,99273.50
2023-05-08T08:07:39.497Z,99271.88
2023-05-08T08:09:43.216Z,99273.91
2023-05-08T08:11:45.824Z,99270.33
2023-05-08T08:13:49.606Z,99267.63
2023-05-08T08:15:53.352Z,99270.67
2023-05-08T08:17:56.205Z,99270.44
2023-05-08T08:19:59.013Z,99267.05
2023-05-08T08:22:01.778Z,99269.11
2023-05-08T08:24:04.730Z,99268.55
2023-05-08T08:26:07.769Z,99268.23
2023-05-08T08:28:13.000Z,99269.56
2023-05-08T08:30:18.240Z,99266.24
2023-05-08T08:32:21.528Z,99264.14
2023-05-08T08:34:25.906Z,99267.69
2023-05-08T08:36:28.580Z,99267.14
2023-05-08T08:38:31.704Z,99269.05
2023-05-08T08:40:39.280Z,99268.05
2023-05-08T08:42:44.652Z,99270.73
2023-05-08T08:44:47.281Z,99268.96
2023-05-08T08:46:53.092Z,99269.95
2023-05-08T08:48:56.444Z,99266.23
2023-05-08T08:51:02.798Z,99264.63
2023-05-08T08:53:11.714Z,99267.53
2023-05-08T08:55:22.017Z,99265.22
2023-05-08T08:57:29.659Z,99266.64
2023-05-08T08:59:34.320Z,99263.34
2023-05-08T09:01:41.458Z,99261.70
2023-05-08T09:03:47.644Z,99261.64
2023-05-08T09:05:54.219Z,99259.61
2023-05-08T09:07:58.343Z,99261.41
2023-05-08T09:10:02.282Z,99264.05
2023-05-08T09:12:06.314Z,99261.69
2023-05-08T09:14:09.824Z,99262.41
2023-05-08T09:16:12.979Z,99265.55
2023-05-08T09:18:16.661Z,99266.42
2023-05-08T09:20:19.672Z,99263.42
2023-05-08T09:22:23.734Z,99256.41
2023-05-08T09:24:29.118Z,99257.96
2023-05-08T09:26:38.321Z,99254.46
2023-05-08T09:28:41.096Z,99251.93
2023-05-08T09:30:57.151Z,99248.03
2023-05-08T09:33:03.195Z,99251.55
2023-05-08T09:35:08.175Z,99248.58
2023-05-08T09:37:13.896Z,99247.24
2023-05-08T09:39:24.215Z,99244.80
2023-05-08T09:41:29.140Z,99242.67
2023-05-08T09:43:31.804Z,99242.06
2023-05-08T09:45:38.833Z,99247.85
2023-05-08T09:47:48.646Z,99244.45
2023-05-08T09:50:04.690Z,99244.24
2023-05-08T09:52:08.400Z,99244.23
2023-05-08T09:54:18.142Z,99243.14
2023-05-08T09:56:41.068Z,99242.39
2023-05-08T09:58:47.948Z,99244.30
2023-05-08T10:00:51.460Z,99244.05
2023-05-08T10:02:58.598Z,99245.77
2023-05-08T10:05:02.291Z,99243.23
2023-05-08T10:07:05.977Z,99242.95
2023-05-08T10:09:19.390Z,99245.43
2023-05-08T10:11:22.462Z,99240.59
2023-05-08T10:13:26.244Z,99239.90
2023-05-08T10:15:31.834Z,99242.02
2023-05-08T10:17:57.408Z,99239.64
2023-05-08T10:20:07.774Z,99241.69
2023-05-08T10:22:11.977Z,99241.17
2023-05-08T10:24:17.611Z,99240.34
2023-05-08T10:26:26.140Z,99234.30
2023-05-08T10:28:34.867Z,99236.83
2023-05-08T10:30:44.031Z,99233.78
2023-05-08T10:32:52.053Z,99234.12
2023-05-08T10:34:59.465Z,99234.45
2023-05-08T10:37:04.338Z,99234.67
2023-05-08T10:39:07.646Z,99234.40
2023-05-08T10:41:11.479Z,99237.69
2023-05-08T10:43:14.540Z,99234.10
2023-05-08T10:45:17.867Z,99232.15
2023-05-08T10:47:45.732Z,99234.64
2023-05-08T10:50:06.222Z,99228.20
2023-05-08T10:52:23.134Z,99233.98
2023-05-08T10:55:04.521Z,99230.31
2023-05-08T10:57:12.584Z,99230.21
2023-05-08T10:59:20.502Z,99230.10
2023-05-08T11:01:25.450Z,99231.17
2023-05-08T11:03:32.740Z,99226.89
2023-05-08T11:05:51.615Z,99226.76
2023-05-08T11:08:01.228Z,99221.56
2023-05-08T11:10:13.631Z,99222.93
2023-05-08T11:12:26.860Z,99220.65
2023-05-08T11:14:31.611Z,99219.95
2023-05-08T11:16:56.334Z,99219.38
2023-05-08T11:19:21.735Z,99222.00
2023-05-08T11:21:26.447Z,99219.48
2023-05-08T11:23:32.046Z,99220.39
2023-05-08T11:25:44.875Z,99224.51
2023-05-08T11:27:51.271Z,99224.04
2023-05-08T11:30:26.456Z,99226.09
2023-05-08T11:33:13.356Z,99221.94
2023-05-08T11:35:45.230Z,99223.70
2023-05-08T11:38:19.870Z,99220.79
2023-05-08T11:40:49.147Z,99217.06
2023-05-08T11:42:56.260Z,99214.33
2023-05-08T11:45:10.166Z,99213.39
2023-05-08T11:47:18.800Z,99214.80
2023-05-08T11:49:28.093Z,99217.48
2023-05-08T11:51:33.965Z,99215.83
2023-05-08T11:53:38.174Z,99216.22
2023-05-08T11:55:40.899Z,99214.29
2023-05-08T11:57:43.699Z,99214.10
2023-05-08T11:59:51.953Z,99220.70
2023-05-08T12:04:01.874Z,99217.78
2023-05-08T12:06:05.068Z,99216.88
2023-05-08T12:08:13.879Z,99215.90
2023-05-08T12:10:18.925Z,99216.87
2023-05-08T12:12:22.893Z,99217.05
2023-05-08T12:14:27.132Z,99218.27
2023-05-08T12:16:29.922Z,99214.75
2023-05-08T12:18:32.767Z,99214.89
2023-05-08T12:20:35.727Z,99215.43
2023-05-08T12:22:42.690Z,99212.18
2023-05-08T12:24:47.120Z,99215.95
2023-05-08T12:26:50.732Z,99216.86
2023-05-08T12:28:56.977Z,99212.59
2023-05-08T12:31:00.416Z,99215.20
2023-05-08T12:33:05.384Z,99214.58
2023-05-08T12:35:12.788Z,99214.72
2023-05-08T12:37:28.791Z,99213.83
2023-05-08T12:39:40.608Z,99213.34
2023-05-08T12:41:48.636Z,99213.05
2023-05-08T12:43:51.385Z,99213.70
2023-05-08T12:45:56.118Z,99213.72
2023-05-08T12:48:07.049Z,99216.17
2023-05-08T12:50:12.828Z,99219.73
2023-05-08T12:52:18.131Z,99216.77
2023-05-08T12:54:33.291Z,99216.92
2023-05-08T12:56:42.942Z,99216.84
2023-05-08T12:58:45.527Z,99213.45
2023-05-08T13:00:51.733Z,99212.02
2023-05-08T13:02:55.926Z,99209.01
2023-05-08T13:05:03.419Z,99209.29
2023-05-08T13:07:06.570Z,99204.27
2023-05-08T13:09:09.602Z,99205.90
2023-05-08T13:11:12.597Z,99200.45
2023-05-08T13:13:17.411Z,99199.32
2023-05-08T13:15:22.992Z,99201.11
2023-05-08T13:17:26.847Z,99199.13
2023-05-08T13:19:29.883Z,99197.37
2023-05-08T13:21:32.464Z,99193.45
2023-05-08T13:23:34.989Z,99194.21
2023-05-08T13:25:38.196Z,99193.79
2023-05-08T13:27:41.019Z,99189.98
2023-05-08T13:29:44.040Z,99190.30
2023-05-08T13:31:47.756Z,99187.33
2023-05-08T13:33:50.735Z,99182.56
2023-05-08T13:35:55.433Z,99178.70
2023-05-08T13:38:00.039Z,99172.33
2023-05-08T13:40:02.921Z,99173.36
2023-05-08T13:42:05.768Z,99172.86
2023-05-08T13:44:08.301Z,99173.07
2023-05-08T13:46:11.617Z,99171.93
2023-05-08T13:48:14.716Z,99175.02
2023-05-08T13:50:19.789Z,99171.80
2023-05-08T13:52:22.474Z,99165.48
2023-05-08T13:54:25.089Z,99164.48
2023-05-08T13:56:27.698Z,99161.42
2023-05-08T13:58:30.381Z,99162.05
2023-05-08T14:00:34.962Z,99162.83
2023-05-08T14:02:38.599Z,99159.79
2023-05-08T14:04:42.491Z,99158.45
2023-05-08T14:06:46.742Z,99163.70
2023-05-08T14:08:52.292Z,99160.69
2023-05-08T14:10:57.040Z,99159.35
2023-05-08T14:12:59.719Z,99159.36
2023-05-08T14:15:03.864Z,99155.80
2023-05-08T14:17:08.762Z,99157.13
2023-05-08T14:19:12.444Z,99159.21
2023-05-08T14:21:15.460Z,99158.08
2023-05-08T14:23:18.177Z,99156.96
2023-05-08T14:25:20.908Z,99151.89
2023-05-08T14:27:26.086Z,99150.70
2023-05-08T14:29:29.889Z,99151.58
2023-05-08T14:31:34.916Z,99151.10
2023-05-08T14:33:37.461Z,99148.95
2023-05-08T14:35:43.263Z,99145.30
2023-05-08T14:37:45.918Z,99142.06
2023-05-08T14:39:49.032Z,99138.96
2023-05-08T14:42:05.691Z,99140.23
2023-05-08T14:44:15.620Z,99137.89
2023-05-08T14:46:18.413Z,99138.84
2023-05-08T14:48:21.411Z,99136.23
2023-05-08T14:50:24.187Z,99136.61
2023-05-08T14:52:29.269Z,99133.24
2023-05-08T14:54:32.151Z,99134.98
2023-05-08T14:56:46.380Z,99129.39
2023-05-08T14:58:51.190Z,99129.89
2023-05-08T15:00:54.199Z,99133.40
2023-05-08T15:03:00.245Z,99131.02
2023-05-08T15:05:08.336Z,99133.23
2023-05-08T15:07:14.720Z,99137.98
2023-05-08T15:09:18.211Z,99133.54
2023-05-08T15:13:26.013Z,99131.11
2023-05-08T15:15:28.792Z,99134.05
2023-05-08T15:17:31.503Z,99134.58
2023-05-08T15:19:34.057Z,99129.80
2023-05-08T15:21:36.614Z,99127.85
2023-05-08T15:23:39.105Z,99123.29
2023-05-08T15:25:41.785Z,99127.88
2023-05-08T15:27:44.373Z,99130.58
2023-05-08T15:29:50.874Z,99130.02
2023-05-08T15:31:54.151Z,99135.08
2023-05-08T15:33:58.015Z,99130.98
2023-05-08T15:36:01.509Z,99129.90
2023-05-08T15:38:11.078Z,99131.32
2023-05-08T15:40:14.436Z,99135.91
2023-05-08T15:42:17.528Z,99137.42
2023-05-08T15:44:20.794Z,99136.80
2023-05-08T15:46:25.340Z,99136.61
2023-05-08T15:48:28.554Z,99134.95
2023-05-08T15:50:33.630Z,99134.14
2023-05-08T15:52:36.390Z,99134.93
2023-05-08T15:54:39.317Z,99136.96
2023-05-08T15:56:42.381Z,99134.95
2023-05-08T15:58:44.897Z,99130.25
2023-05-08T16:00:47.720Z,99132.02
2023-05-08T16:02:50.352Z,99131.08
2023-05-08T16:04:53.589Z,99128.52
2023-05-08T16:07:04.916Z,99131.23
2023-05-08T16:09:07.917Z,99127.73
2023-05-08T16:11:11.151Z,99126.64
2023-05-08T16:13:14.870Z,99130.41
2023-05-08T16:15:19.224Z,99126.41
2023-05-08T16:17:22.269Z,99133.80
2023-05-08T16:19:25.233Z,99126.54
2023-05-08T16:21:27.840Z,99123.72
2023-05-08T16:23:30.404Z,99123.34
2023-05-08T16:25:33.022Z,99120.77
2023-05-08T16:27:37.060Z,99119.38
2023-05-08T16:29:41.600Z,99119.20
2023-05-08T16:31:44.505Z,99116.48
2023-05-08T16:33:47.305Z,99117.71
2023-05-08T16:35:50.597Z,99118.52
2023-05-08T16:37:53.816Z,99122.55
2023-05-08T16:39:56.356Z,99122.35
2023-05-08T16:41:58.903Z,99126.09
2023-05-08T16:44:01.417Z,99130.63
2023-05-08T16:46:06.625Z,99128.13
2023-05-08T16:48:11.266Z,99128.47
2023-05-08T16:50:13.889Z,99130.33
2023-05-08T16:52:17.628Z,99128.94
2023-05-08T16:54:23.269Z,99131.17
2023-05-08T16:56:25.788Z,99129.48
2023-05-08T16:58:29.377Z,99131.99
2023-05-08T17:00:32.846Z,99132.42
2023-05-08T17:02:35.598Z,99129.27
2023-05-08T17:04:38.670Z,99132.05
2023-05-08T17:06:43.084Z,99129.89
2023-05-08T17:08:47.017Z,99123.80
2023-05-08T17:10:49.775Z,99126.30
2023-05-08T17:12:55.196Z,99129.30
2023-05-08T17:14:58.252Z,99128.57
2023-05-08T17:17:01.575Z,99130.39
2023-05-08T17:19:04.594Z,99129.08
2023-05-08T17:21:08.366Z,99134.11
2023-05-08T17:23:11.852Z,99135.27
2023-05-08T17:25:15.259Z,99136.15
2023-05-08T17:27:19.435Z,99137.20
2023-05-08T17:29:22.089Z,99138.14
2023-05-08T17:31:25.076Z,99137.50
2023-05-08T17:33:28.880Z,99137.98
2023-05-08T17:35:38.645Z,99140.58
2023-05-08T17:37:42.780Z,99144.20
2023-05-08T17:39:48.068Z,99147.19
2023-05-08T17:41:51.909Z,99149.92
2023-05-08T17:43:55.434Z,99155.45
2023-05-08T17:46:00.286Z,99155.67
2023-05-08T17:48:04.378Z,99154.80
2023-05-08T17:50:09.422Z,99156.83
2023-05-08T17:52:12.438Z,99162.26
2023-05-08T17:54:15.901Z,99164.09
2023-05-08T17:56:20.469Z,99163.89
2023-05-08T17:58:23.694Z,99164.45
2023-05-08T18:00:26.871Z,99166.44
2023-05-08T18:02:29.348Z,99170.56
2023-05-08T18:04:32.613Z,99172.50
2023-05-08T18:06:35.560Z,99164.32
2023-05-08T18:08:40.089Z,99161.11
2023-05-08T18:10:43.909Z,99161.11
2023-05-08T18:12:46.826Z,99159.16
2023-05-08T18:14:49.397Z,99161.82
2023-05-08T18:16:53.724Z,99161.36
2023-05-08T18:18:56.277Z,99166.11
2023-05-08T18:20:59.488Z,99173.05
2023-05-08T18:23:02.562Z,99175.52
2023-05-08T18:25:05.759Z,99179.13
2023-05-08T18:27:08.361Z,99178.96
2023-05-08T18:29:13.205Z,99175.67
2023-05-08T18:31:16.532Z,99171.59
2023-05-08T18:33:19.614Z,99170.95
2023-05-08T18:35:23.611Z,99170.83
2023-05-08T18:37:26.269Z,99172.74
2023-05-08T18:39:29.318Z,99171.98
2023-05-08T18:41:39.770Z,99172.63
2023-05-08T18:43:43.332Z,99170.02
2023-05-08T18:45:49.143Z,99172.37
2023-05-08T18:47:57.281Z,99172.77
2023-05-08T18:50:00.492Z,99179.46
2023-05-08T18:52:06.614Z,99184.53
2023-05-08T18:54:13.223Z,99186.09
2023-05-08T18:56:16.637Z,99188.41
2023-05-08T18:58:21.344Z,99193.54
2023-05-08T19:00:24.171Z,99193.11
2023-05-08T19:02:30.252Z,99196.73
2023-05-08T19:04:33.157Z,99195.67
2023-05-08T19:06:35.715Z,99195.48
2023-05-08T19:08:38.710Z,99191.20
2023-05-08T19:10:42.961Z,99193.40
2023-05-08T19:12:46.235Z,99191.30
2023-05-08T19:14:51.242Z,99190.35
2023-05-08T19:16:56.971Z,99188.30
2023-05-08T19:19:01.006Z,99189.27
2023-05-08T19:21:04.912Z,99191.10
2023-05-08T19:23:10.242Z,99192.27
2023-05-08T19:25:16.119Z,99192.29
2023-05-08T19:27:20.467Z,99191.09
2023-05-08T19:29:26.354Z,99193.59
2023-05-08T19:31:29.006Z,99198.77
2023-05-08T19:33:33.272Z,99202.89
2023-05-08T19:35:36.160Z,99205.21
2023-05-08T19:37:38.940Z,99205.24
2023-05-08T19:39:41.785Z,99206.02
2023-05-08T19:41:44.668Z,99201.55
2023-05-08T19:43:47.680Z,99202.73
2023-05-08T19:45:50.649Z,99200.39
2023-05-08T19:47:53.627Z,99199.46
2023-05-08T19:49:59.149Z,99197.41
2023-05-08T19:52:03.980Z,99198.63
2023-05-08T19:54:07.452Z,99200.66
2023-05-08T19:56:10.203Z,99204.34
2023-05-08T19:58:14.296Z,99203.91
2023-05-08T20:00:17.075Z,99202.23
2023-05-08T20:02:21.772Z,99205.21
2023-05-08T20:04:25.154Z,99206.15
2023-05-08T20:06:29.712Z,99203.77
2023-05-08T20:08:32.376Z,99203.39
2023-05-08T20:10:35.103Z,99202.26
2023-05-08T20:12:38.873Z,99202.52
2023-05-08T20:14:44.705Z,99200.52
2023-05-08T20:16:48.398Z,99199.27
2023-05-08T20:18:53.954Z,99200.84
2023-05-08T20:20:56.788Z,99201.72
2023-05-08T20:23:00.173Z,99203.98
2023-05-08T20:25:04.617Z,99203.20
2023-05-08T20:27:07.965Z,99203.73
2023-05-08T20:29:12.966Z,99205.08
2023-05-08T20:31:17.573Z,99203.84
2023-05-08T20:33:20.945Z,99199.23
2023-05-08T20:35:23.914Z,99196.02
2023-05-08T20:37:26.614Z,99201.85
2023-05-08T20:39:29.457Z,99200.18
2023-05-08T20:41:32.252Z,99203.29
2023-05-08T20:43:35.117Z,99202.81
2023-05-08T20:45:38.188Z,99200.06
2023-05-08T20:47:40.915Z,99201.18
2023-05-08T20:49:44.223Z,99200.49
2023-05-08T20:51:47.892Z,99197.48
2023-05-08T20:53:55.673Z,99195.49
2023-05-08T20:56:05.920Z,99193.69
2023-05-08T20:58:09.278Z,99194.51
2023-05-08T21:00:15.418Z,99191.50
2023-05-08T21:02:21.967Z,99191.19
2023-05-08T21:04:24.896Z,99189.75
2023-05-08T21:06:28.062Z,99189.21
2023-05-08T21:08:33.793Z,99186.65
2023-05-08T21:10:38.153Z,99185.73
2023-05-08T21:12:48.395Z,99185.57
2023-05-08T21:15:02.833Z,99178.94
2023-05-08T21:17:06.531Z,99181.84
2023-05-08T21:19:11.116Z,99184.27
2023-05-08T21:21:22.375Z,99180.79
2023-05-08T21:23:26.740Z,99177.04
2023-05-08T21:25:29.534Z,99176.48
2023-05-08T21:27:33.846Z,99172.73
2023-05-08T21:29:41.523Z,99169.45
2023-05-08T21:31:47.602Z,99169.98
2023-05-08T21:33:51.271Z,99170.30
2023-05-08T21:35:56.370Z,99169.12
2023-05-08T21:37:59.120Z,99169.45
2023-05-08T21:40:07.342Z,99172.33
2023-05-08T21:42:11.233Z,99166.71
2023-05-08T21:44:16.571Z,99168.66
2023-05-08T21:46:22.738Z,99165.13
2023-05-08T21:48:29.127Z,99163.30
2023-05-08T21:50:37.540Z,99164.19
2023-05-08T21:52:42.131Z,99158.05
2023-05-08T21:54:46.371Z,99157.71
2023-05-08T21:56:49.559Z,99154.30
2023-05-08T21:58:52.785Z,99153.25
2023-05-08T22:00:59.741Z,99150.14
2023-05-08T22:03:05.101Z,99150.31
2023-05-08T22:05:11.959Z,99153.51
2023-05-08T22:07:22.528Z,99156.70
2023-05-08T22:09:39.488Z,99154.51
2023-05-08T22:11:44.384Z,99153.45
2023-05-08T22:13:48.563Z,99155.73
2023-05-08T22:15:52.574Z,99152.23
2023-05-08T22:17:56.128Z,99155.73
2023-05-08T22:19:59.161Z,99159.50
2023-05-08T22:22:03.467Z,99157.30
2023-05-08T22:24:06.742Z,99162.98
2023-05-08T22:26:10.205Z,99161.62
2023-05-08T22:28:13.045Z,99161.88
2023-05-08T22:30:18.164Z,99164.34
2023-05-08T22:32:21.018Z,99161.84
2023-05-08T22:34:23.646Z,99161.35
2023-05-08T22:36:26.205Z,99159.08
2023-05-08T22:38:29.035Z,99161.02
2023-05-08T22:40:31.909Z,99163.16
2023-05-08T22:42:35.341Z,99163.15
2023-05-08T22:44:37.971Z,99163.93
2023-05-08T22:46:42.972Z,99159.33
2023-05-08T22:48:46.145Z,99159.73
2023-05-08T22:50:49.954Z,99155.08
2023-05-08T22:52:54.185Z,99155.45
2023-05-08T22:54:58.899Z,99154.62
2023-05-08T22:57:02.881Z,99151.23
2023-05-08T22:59:10.283Z,99150.34
2023-05-08T23:01:18.322Z,99149.42
2023-05-08T23:03:21.730Z,99146.17
2023-05-08T23:05:25.243Z,99139.29
2023-05-08T23:07:29.100Z,99133.84
2023-05-08T23:09:31.735Z,99137.79
2023-05-08T23:11:34.795Z,99132.55
2023-05-08T23:13:39.145Z,99128.07
2023-05-08T23:15:43.226Z,99120.89
2023-05-08T23:17:48.591Z,99118.92
2023-05-08T23:19:51.447Z,99116.52
2023-05-08T23:21:54.023Z,99116.56
2023-05-08T23:24:10.243Z,99117.02
2023-05-08T23:26:13.658Z,99117.46
2023-05-08T23:28:17.105Z,99123.05
2023-05-08T23:30:21.104Z,99118.44
2023-05-08T23:32:24.546Z,99122.08
2023-05-08T23:34:30.387Z,99116.71
2023-05-08T23:36:33.809Z,99114.45
2023-05-08T23:38:36.391Z,99110.08
2023-05-08T23:40:40.883Z,99113.28
2023-05-08T23:42:44.069Z,99118.27
2023-05-08T23:44:47.350Z,99117.57
2023-05-08T23:46:51.289Z,99117.23
2023-05-08T23:48:55.567Z,99114.68
2023-05-08T23:50:59.050Z,99118.30
2023-05-08T23:53:01.912Z,99112.57
2023-05-08T23:55:06.570Z,99111.27
2023-05-08T23:57:11.571Z,99111.67
2023-05-08T23:59:15.476Z,99113.27
